Latest Weather Observations for Christmas Island

IDW60801

Issued at 3:03 am WST Thursday 29 June 2017 (issued every 30 minutes, with the page automatically refreshed every 10 minutes)

About weather observations | Map of weather stations | Latest weather observations for WA | Other Formats
Station Details ID: 200790 Name: CHRISTMAS ISLAND AERO Lat: -10.45 Lon: 105.69 Height: 261.0 m
Data from the previous 72 hours. | See also: Recent months at Christmas Island
Date/Time
WST
Temp
°C
App
Temp
°C
Dew
Point
°C
Rel
Hum
%
Delta-T
°C
Wind Press
QNH
hPa
Press
MSL
hPa
Rain since
9am
mm
Dir  Spd
km/h
Gust
km/h
Spd
kts
Gust
kts
29/03:00am 24.5 26.5 23.6 95 0.6 E 19 26 10 14 1013.9 - 17.8
29/02:30am 24.6 26.5 23.4 93 0.8 ESE 19 28 10 15 1014.2 - 17.8
29/02:00am 24.4 25.6 23.2 93 0.8 ESE 22 33 12 18 1014.3 - 17.8
29/01:30am 24.5 25.7 23.2 92 0.9 ESE 22 32 12 17 1014.5 - 17.8
29/01:00am 24.6 26.1 23.1 91 1.0 ESE 20 32 11 17 1014.6 1013.1 17.8
29/12:30am 24.6 25.7 23.1 91 1.0 ESE 22 30 12 16 1014.8 - 17.8
29/12:00am 24.5 25.7 23.2 92 0.9 ESE 22 32 12 17 1015.0 - 17.8
 
Date/Time
WST
Temp
°C
App
Temp
°C
Dew
Point
°C
Rel
Hum
%
Delta-T
°C
Wind Press
QNH
hPa
Press
MSL
hPa
Rain since
9am
mm
Dir  Spd
km/h
Gust
km/h
Spd
kts
Gust
kts
28/11:30pm 24.7 25.7 22.9 90 1.2 ESE 22 33 12 18 1015.1 - 17.6
28/11:00pm 24.7 25.7 22.9 90 1.2 ESE 22 35 12 19 1015.3 - 17.6
28/10:30pm 24.7 25.6 22.6 88 1.4 ESE 22 30 12 16 1015.1 - 17.6
28/10:00pm 24.8 26.1 22.7 88 1.4 ESE 20 32 11 17 1015.0 1013.5 17.6
28/09:30pm 24.8 26.1 22.6 87 1.5 ESE 20 37 11 20 1014.9 - 17.6
28/09:00pm 24.7 25.9 22.5 87 1.5 ESE 20 30 11 16 1014.7 - 17.6
28/08:30pm 24.7 25.4 22.3 86 1.6 ESE 22 33 12 18 1014.5 - 17.6
28/08:00pm 24.7 25.7 22.8 89 1.3 ESE 22 35 12 19 1014.0 - 17.6
28/07:30pm 24.6 25.7 22.4 87 1.5 ESE 20 32 11 17 1013.8 - 17.6
28/07:00pm 24.6 25.5 22.7 89 1.3 ESE 22 33 12 18 1013.5 1012.0 17.6
28/06:36pm 24.4 25.7 22.6 90 1.2 ESE 20 35 11 19 1013.4 - 17.6
28/06:30pm 24.3 25.6 22.7 91 1.1 ESE 20 32 11 17 1013.4 - 17.6
28/06:17pm 24.2 25.1 22.6 91 1.1 ESE 22 32 12 17 1013.5 - 17.6
28/06:03pm 24.2 25.3 22.4 90 1.2 ESE 20 30 11 16 1013.3 - 17.6
28/06:00pm 24.2 25.3 22.3 89 1.3 ESE 20 30 11 16 1013.3 - 17.6
28/05:30pm 24.1 25.5 22.9 93 0.8 ESE 20 33 11 18 1013.2 - 17.6
28/05:00pm 23.9 25.9 22.9 94 0.7 ESE 17 20 9 11 1013.2 - 17.6
28/04:30pm 24.0 25.6 23.3 96 0.5 E 20 33 11 18 1013.1 - 17.6
28/04:19pm 23.9 25.5 23.3 96 0.4 E 20 33 11 18 1013.0 - 17.6
28/04:00pm 24.1 26.0 23.5 96 0.4 E 19 28 10 15 1013.0 1011.5 17.6
28/03:49pm 24.4 26.1 23.4 94 0.7 E 20 32 11 17 1012.8 - 17.2
28/03:30pm 24.6 26.1 23.0 91 1.1 ESE 20 32 11 17 1012.7 - 17.0
28/03:00pm 24.4 25.2 23.2 93 0.8 ESE 24 33 13 18 1012.9 - 17.0
28/02:30pm 24.3 26.0 23.4 95 0.6 SE 20 30 11 16 1013.3 - 17.0
28/02:00pm 24.1 25.3 23.2 95 0.6 ESE 22 32 12 17 1013.5 - 16.8
28/01:35pm 23.7 24.8 23.0 96 0.5 ESE 22 35 12 19 1013.9 - 16.6
28/01:30pm 23.6 24.7 23.0 96 0.4 ESE 22 35 12 19 1014.0 - 16.6
28/01:00pm 23.4 23.2 22.8 96 0.4 ENE 28 48 15 26 1014.3 1012.8 13.2
28/12:52pm 23.3 22.9 22.4 95 0.6 ENE 28 48 15 26 1014.3 - 7.8
28/12:48pm 23.8 24.3 22.6 93 0.8 E 24 37 13 20 1014.2 - 5.4
28/12:30pm 24.4 25.1 22.9 91 1.0 SE 24 35 13 19 1014.2 - 5.2
28/12:00pm 24.1 25.8 23.4 96 0.5 SE 20 32 11 17 1014.4 - 5.2
28/11:49am 23.7 25.8 23.1 96 0.4 SE 17 22 9 12 1014.6 - 5.2
28/11:30am 23.3 24.2 22.7 96 0.4 ESE 22 43 12 23 1014.9 - 5.2
28/11:24am 23.4 24.4 22.8 96 0.4 ESE 22 35 12 19 1014.8 - 5.0
28/11:19am 23.5 24.3 23.1 98 0.3 ESE 24 37 13 20 1014.9 - 5.0
28/11:00am 23.3 24.7 22.9 98 0.3 ESE 20 28 11 15 1014.9 - 3.2
28/10:48am 23.7 23.3 23.0 96 0.5 E 30 48 16 26 1014.9 - 1.8
28/10:30am 23.8 24.2 23.2 96 0.4 ESE 26 43 14 23 1014.8 - 1.0
28/10:01am 24.1 24.0 22.9 93 0.8 ESE 28 46 15 25 1014.5 - 0.0
28/10:00am 24.0 23.6 23.0 94 0.7 ESE 30 46 16 25 1014.5 1013.0 6.8
28/09:58am 24.1 23.6 22.8 92 0.9 ESE 30 46 16 25 1014.5 - 6.8
28/09:33am 24.4 24.1 22.5 89 1.3 ESE 28 46 15 25 1014.5 - 5.8
28/09:30am 24.5 24.4 22.9 91 1.1 ESE 28 43 15 23 1014.6 - 5.8
28/09:03am 24.1 24.9 23.1 94 0.7 ESE 24 39 13 21 1014.4 - 5.8
28/09:00am 24.0 24.4 23.1 95 0.6 ESE 26 39 14 21 1014.4 - 5.8
28/08:42am 24.3 23.9 23.0 92 0.9 ESE 30 43 16 23 1014.1 - 5.4
28/08:30am 24.1 24.4 22.9 93 0.8 ESE 26 39 14 21 1013.8 - 5.0
28/08:09am 24.4 24.3 22.9 91 1.0 ESE 28 48 15 26 1013.6 - 5.0
28/08:00am 24.3 24.3 23.0 92 0.9 ESE 28 46 15 25 1013.4 - 5.0
28/07:51am 24.3 23.9 23.0 92 0.9 ESE 30 48 16 26 1013.4 - 5.0
28/07:45am 24.7 24.4 22.6 88 1.4 ESE 28 48 15 26 1013.2 - 5.0
28/07:30am 24.7 24.4 22.5 87 1.5 ESE 28 41 15 22 1013.2 - 5.0
28/07:00am 24.5 24.7 22.7 90 1.2 ESE 26 39 14 21 1013.1 1011.6 5.0
28/06:30am 24.5 24.8 22.9 91 1.1 ESE 26 39 14 21 1012.9 - 5.0
28/06:00am 24.6 25.0 22.5 88 1.4 ESE 24 37 13 20 1013.1 - 5.0
28/05:30am 24.6 24.1 22.2 86 1.6 ESE 28 39 15 21 1013.2 - 5.0
28/05:00am 24.6 25.4 22.4 87 1.5 ESE 22 39 12 21 1013.1 - 5.0
28/04:30am 24.7 24.6 22.3 86 1.6 ESE 26 41 14 22 1012.9 - 5.0
28/04:00am 24.5 24.1 22.3 87 1.5 ESE 28 41 15 22 1012.9 1011.4 5.0
28/03:30am 24.6 24.7 22.5 88 1.4 ESE 26 37 14 20 1013.0 - 5.0
28/03:00am 24.5 24.7 22.7 90 1.2 ESE 26 39 14 21 1013.5 - 5.0
28/02:30am 24.6 25.1 22.7 89 1.3 ESE 24 35 13 19 1013.7 - 5.0
28/02:00am 24.7 24.8 22.5 87 1.5 ESE 26 35 14 19 1014.0 - 5.0
28/01:30am 24.5 24.7 22.1 86 1.6 ESE 24 35 13 19 1014.2 - 5.0
28/01:00am 24.6 24.9 22.2 86 1.6 ESE 24 33 13 18 1014.4 1012.9 5.0
28/12:30am 24.6 24.4 22.1 86 1.7 ESE 26 44 14 24 1014.4 - 5.0
28/12:00am 24.5 24.5 22.4 88 1.4 ESE 26 39 14 21 1014.6 - 5.0
 
Date/Time
WST
Temp
°C
App
Temp
°C
Dew
Point
°C
Rel
Hum
%
Delta-T
°C
Wind Press
QNH
hPa
Press
MSL
hPa
Rain since
9am
mm
Dir  Spd
km/h
Gust
km/h
Spd
kts
Gust
kts
27/11:30pm 24.4 24.7 22.3 88 1.4 ESE 24 37 13 20 1014.9 - 5.0
27/11:00pm 24.5 24.7 22.7 90 1.2 ESE 26 37 14 20 1015.0 - 5.0
27/10:30pm 24.5 25.2 22.9 91 1.1 ESE 24 35 13 19 1014.9 - 5.0
27/10:00pm 24.4 25.0 22.8 91 1.1 ESE 24 33 13 18 1015.0 1013.5 5.0
27/09:30pm 24.3 25.4 23.0 92 0.9 ESE 22 32 12 17 1015.1 - 5.0
27/09:00pm 24.2 24.7 22.7 91 1.0 ESE 24 35 13 19 1014.9 - 5.0
27/08:30pm 24.1 24.9 23.1 94 0.7 ESE 24 32 13 17 1014.7 - 5.0
27/08:00pm 24.3 25.4 23.1 93 0.8 ESE 22 30 12 16 1014.7 - 5.0
27/07:30pm 24.2 25.3 23.0 93 0.8 ESE 22 33 12 18 1014.4 - 5.0
27/07:00pm 24.1 25.4 23.4 96 0.5 SE 22 32 12 17 1013.9 1012.4 5.0
27/06:30pm 24.1 25.8 23.4 96 0.5 SE 20 32 11 17 1013.7 - 5.0
27/06:00pm 24.1 26.0 23.5 96 0.4 ESE 19 28 10 15 1013.6 - 5.0
27/05:30pm 24.1 25.9 23.5 96 0.4 ESE 20 28 11 15 1013.4 - 5.0
27/05:00pm 23.7 25.4 23.1 96 0.4 SE 19 26 10 14 1013.5 - 5.0
27/04:36pm 23.5 24.6 23.1 98 0.3 ESE 22 33 12 18 1013.6 - 5.0
27/04:32pm 23.6 25.2 23.2 98 0.3 ESE 20 33 11 18 1013.6 - 5.0
27/04:30pm 23.6 25.2 23.2 98 0.3 ESE 20 33 11 18 1013.6 - 5.0
27/04:00pm 23.7 25.4 23.4 98 0.2 ESE 20 30 11 16 1013.6 1012.1 5.0
27/03:41pm 23.9 25.7 23.5 98 0.3 SE 20 28 11 15 1013.7 - 4.2
27/03:30pm 23.8 25.5 23.4 98 0.3 ESE 20 32 11 17 1013.8 - 2.8
27/03:14pm 23.6 25.2 23.3 98 0.2 ESE 20 30 11 16 1013.9 - 2.8
27/03:00pm 23.8 25.6 23.5 98 0.2 ESE 20 41 11 22 1013.9 - 2.8
27/02:59pm 23.8 25.6 23.5 98 0.2 ESE 20 41 11 22 1013.9 - 2.8
27/02:49pm 24.2 26.8 23.9 98 0.2 ESE 17 30 9 16 1013.8 - 2.6
27/02:41pm 24.2 26.8 23.9 98 0.2 SE 17 24 9 13 1013.7 - 2.0
27/02:30pm 24.2 27.5 23.9 98 0.2 SSE 13 17 7 9 1013.9 - 1.8
27/02:10pm 24.2 26.3 23.8 98 0.3 ESE 19 28 10 15 1014.3 - 1.8
27/02:08pm 24.1 26.2 23.8 98 0.2 ESE 19 28 10 15 1014.3 - 1.8
27/02:07pm 24.1 26.2 23.8 98 0.2 ESE 19 28 10 15 1014.4 - 1.8
27/02:04pm 24.1 26.6 23.8 98 0.2 ESE 17 28 9 15 1014.4 - 1.8
27/02:00pm 24.0 26.8 23.6 98 0.3 ESE 15 24 8 13 1014.4 - 1.8
27/01:58pm 23.9 26.7 23.6 98 0.2 ESE 15 24 8 13 1014.5 - 1.8
27/01:48pm 23.6 25.8 23.3 98 0.2 E 17 24 9 13 1014.7 - 1.8
27/01:30pm 23.3 25.3 23.0 98 0.2 ESE 17 22 9 12 1014.9 - 1.8
27/01:07pm 23.2 25.1 22.8 98 0.3 ESE 17 32 9 17 1015.1 - 1.6
27/01:00pm 23.1 24.0 22.7 98 0.3 E 22 41 12 22 1015.1 1013.6 1.6
27/12:54pm 23.1 22.9 22.8 98 0.2 E 28 41 15 22 1015.2 - 1.2
27/12:53pm 23.4 23.8 23.1 98 0.2 E 26 41 14 22 1015.1 - 1.0
27/12:30pm 24.4 26.1 24.0 98 0.3 ESE 22 28 12 15 1015.1 - 0.2
27/12:19pm 24.3 26.3 23.9 98 0.3 ESE 20 35 11 19 1015.0 - 0.2
27/12:14pm 24.3 26.3 24.0 98 0.2 ESE 20 35 11 19 1015.1 - 0.2
27/12:09pm 24.4 26.1 24.0 98 0.3 ESE 22 33 12 18 1015.2 - 0.2
27/12:00pm 24.2 25.8 23.8 98 0.3 ESE 22 33 12 18 1015.3 - 0.2
27/11:54am 24.2 25.8 23.8 98 0.3 ESE 22 32 12 17 1015.4 - 0.2
27/11:42am 24.3 25.4 23.7 96 0.4 E 24 37 13 20 1015.5 - 0.2
27/11:30am 24.1 25.8 23.4 96 0.5 E 20 30 11 16 1015.7 - 0.2
27/11:08am 23.3 25.2 22.7 96 0.4 E 17 26 9 14 1016.3 - 0.2
27/11:00am 23.2 25.1 22.8 98 0.3 E 17 24 9 13 1016.3 - 0.2
27/10:56am 23.6 25.8 23.2 98 0.3 E 17 26 9 14 1016.3 - 0.2
27/10:30am 23.7 26.3 23.3 98 0.3 E 15 22 8 12 1016.2 - 0.2
27/10:25am 23.8 26.8 23.4 98 0.3 ESE 13 17 7 9 1016.1 - 0.2
27/10:10am 24.0 26.0 23.6 98 0.3 E 19 28 10 15 1015.9 - 0.2
27/10:08am 23.9 25.8 23.5 98 0.3 E 19 28 10 15 1015.8 - 0.0
27/10:00am 23.6 25.4 23.2 98 0.3 ESE 19 30 10 16 1015.9 1014.4 50.0
27/09:41am 23.5 24.3 23.1 98 0.3 ESE 24 35 13 19 1015.6 - 49.6
27/09:34am 23.9 25.3 23.5 98 0.3 ESE 22 33 12 18 1015.4 - 48.6
27/09:30am 24.0 25.9 23.7 98 0.2 ESE 20 32 11 17 1015.3 - 48.6
27/09:16am 24.0 26.0 23.6 98 0.3 ESE 19 28 10 15 1015.3 - 48.6
27/09:11am 23.9 25.8 23.5 98 0.3 ESE 19 28 10 15 1015.3 - 48.6
27/09:10am 23.9 25.7 23.6 98 0.2 ESE 20 28 11 15 1015.3 - 48.6
27/09:08am 24.0 25.9 23.7 98 0.2 ESE 20 28 11 15 1015.3 - 48.6
27/09:05am 23.9 25.7 23.6 98 0.2 ESE 20 28 11 15 1015.3 - 48.6
27/09:00am 23.9 25.9 23.6 98 0.2 ESE 19 28 10 15 1015.3 - 48.4
27/08:44am 23.3 25.3 23.0 98 0.2 ESE 17 30 9 16 1015.3 - 47.4
27/08:30am 22.8 23.6 22.4 98 0.3 ESE 22 33 12 18 1015.3 - 46.6
27/08:29am 22.7 23.5 22.4 98 0.2 ESE 22 33 12 18 1015.3 - 46.6
27/08:24am 22.5 23.1 22.1 98 0.3 ESE 22 33 12 18 1015.3 - 46.0
27/08:00am 22.4 21.4 22.0 98 0.3 ENE 30 52 16 28 1015.2 - 33.4
27/07:54am 22.3 20.9 21.9 98 0.3 ENE 32 52 17 28 1015.0 - 27.2
27/07:34am 23.9 25.7 23.5 98 0.3 ESE 20 30 11 16 1014.3 - 24.4
27/07:31am 23.8 25.5 23.4 98 0.3 ESE 20 30 11 16 1014.2 - 24.2
27/07:30am 23.8 25.5 23.4 98 0.3 SE 20 30 11 16 1014.2 - 24.2
27/07:22am 23.6 25.4 23.2 98 0.3 E 19 30 10 16 1014.3 - 22.6
27/07:17am 24.0 25.8 23.6 98 0.3 E 20 39 11 21 1014.3 - 21.6
27/07:09am 24.0 24.2 23.4 96 0.4 ESE 28 44 15 24 1014.2 - 19.6
27/07:04am 23.9 24.4 23.3 96 0.4 SE 26 41 14 22 1013.9 - 19.0
27/07:00am 23.9 24.8 23.3 96 0.4 SE 24 41 13 22 1013.8 1012.3 19.0
27/06:50am 23.9 25.5 23.3 96 0.4 SE 20 30 11 16 1013.9 - 19.0
27/06:30am 23.2 25.0 22.6 96 0.4 SE 17 30 9 16 1013.8 - 19.0
27/06:20am 23.2 24.1 22.6 96 0.4 SE 22 39 12 21 1013.7 - 19.0
27/06:17am 23.2 23.3 22.6 96 0.4 SE 26 39 14 21 1013.7 - 19.0
27/06:14am 23.4 23.6 22.7 96 0.5 SE 26 39 14 21 1013.6 - 19.0
27/06:06am 23.7 23.9 22.8 95 0.6 ESE 26 39 14 21 1013.5 - 18.8
27/06:05am 23.8 24.1 22.9 95 0.6 ESE 26 43 14 23 1013.5 - 18.8
27/06:02am 23.8 23.6 22.8 94 0.7 ESE 28 43 15 23 1013.5 - 18.8
27/06:00am 23.8 23.5 22.6 93 0.8 SE 28 43 15 23 1013.4 - 18.8
27/05:30am 24.5 25.2 23.0 91 1.0 ESE 24 32 13 17 1013.6 - 18.8
27/05:00am 24.5 24.8 22.9 91 1.1 ESE 26 35 14 19 1013.5 - 18.8
27/04:30am 24.5 25.0 22.7 90 1.2 SE 24 37 13 20 1013.5 - 18.8
27/04:00am 24.4 25.3 23.4 94 0.7 SE 24 35 13 19 1013.4 1011.9 18.8
27/03:30am 24.5 25.2 23.0 91 1.0 SE 24 37 13 20 1013.7 - 18.8
27/03:00am 24.6 25.5 23.3 92 0.9 SE 24 39 13 21 1013.8 - 18.8
27/02:30am 24.5 25.3 23.2 92 0.9 ESE 24 35 13 19 1014.0 - 18.8
27/02:00am 24.5 25.3 23.2 92 0.9 SE 24 35 13 19 1014.4 - 18.8
27/01:30am 24.3 25.0 23.0 92 0.9 ESE 24 33 13 18 1014.5 - 18.8
27/01:00am 24.4 25.2 23.1 92 0.9 SE 24 37 13 20 1014.5 1013.0 18.8
27/12:30am 24.3 25.6 23.4 95 0.6 SE 22 33 12 18 1014.9 - 18.8
27/12:00am 24.3 25.4 23.6 96 0.5 SE 24 33 13 18 1014.9 - 18.8
 
Date/Time
WST
Temp
°C
App
Temp
°C
Dew
Point
°C
Rel
Hum
%
Delta-T
°C
Wind Press
QNH
hPa
Press
MSL
hPa
Rain since
9am
mm
Dir  Spd
km/h
Gust
km/h
Spd
kts
Gust
kts
26/11:30pm 24.3 25.4 23.6 96 0.5 SE 24 35 13 19 1014.6 - 18.8
26/11:27pm 24.2 25.2 23.5 96 0.5 SE 24 35 13 19 1014.7 - 18.8
26/11:00pm 24.1 26.0 23.5 96 0.4 SE 19 26 10 14 1014.7 - 18.8
26/10:49pm 23.9 25.7 23.3 96 0.4 SE 19 32 10 17 1014.8 - 18.8
26/10:31pm 23.3 24.4 22.4 95 0.6 SE 20 30 11 16 1014.9 - 18.8
26/10:30pm 23.2 24.3 22.3 95 0.6 SE 20 30 11 16 1014.9 - 18.8
26/10:12pm 23.7 24.8 23.1 96 0.4 SE 22 41 12 22 1014.6 - 18.8
26/10:00pm 24.3 25.4 23.6 96 0.5 SE 24 35 13 19 1014.4 1012.9 18.8
26/09:42pm 24.4 26.3 23.7 96 0.5 SE 20 32 11 17 1014.4 - 18.6
26/09:30pm 24.5 25.6 23.6 95 0.6 SE 24 33 13 18 1014.4 - 18.4
26/09:21pm 24.6 26.3 23.4 93 0.8 ESE 20 32 11 17 1014.3 - 17.8
26/09:00pm 24.8 26.6 23.6 93 0.8 SE 20 32 11 17 1014.2 - 16.4
26/08:30pm 25.0 25.4 22.5 86 1.7 ESE 24 35 13 19 1014.1 - 16.4
26/08:00pm 24.9 25.3 22.5 86 1.6 ESE 24 33 13 18 1013.6 - 16.4
26/07:30pm 24.8 25.9 22.4 86 1.6 ESE 20 33 11 18 1013.4 - 16.4
26/07:00pm 24.5 25.6 22.4 88 1.4 ESE 20 28 11 15 1013.2 1011.7 16.4
26/06:30pm 24.5 26.1 23.2 92 0.9 SE 20 32 11 17 1013.1 - 16.4
26/06:00pm 24.6 26.1 23.1 91 1.0 SE 20 26 11 14 1012.9 - 16.4
26/05:30pm 24.6 26.1 23.1 91 1.0 ESE 20 30 11 16 1012.8 - 16.4
26/05:00pm 24.7 26.0 23.4 92 0.9 ESE 22 28 12 15 1012.8 - 16.4
26/04:30pm 24.8 25.6 23.2 91 1.1 SE 24 35 13 19 1012.5 - 16.4
26/04:00pm 24.7 26.1 23.5 93 0.8 SE 22 33 12 18 1012.3 1010.7 16.4
26/03:30pm 24.7 26.0 23.4 92 0.9 ESE 22 35 12 19 1012.4 - 16.4
26/03:00pm 25.0 26.9 23.5 91 1.0 ESE 19 26 10 14 1012.5 - 16.4
26/02:30pm 25.1 26.5 23.6 91 1.0 ESE 22 33 12 18 1012.7 - 16.4
26/02:00pm 24.5 25.6 23.6 95 0.6 SE 24 39 13 21 1012.9 - 16.4
26/01:30pm 24.2 25.6 23.6 96 0.4 SE 22 33 12 18 1013.3 - 16.4
26/01:21pm 24.2 25.6 23.6 96 0.4 SE 22 33 12 18 1013.2 - 16.4
26/01:00pm 24.0 25.1 23.6 98 0.3 ESE 24 37 13 20 1013.4 1011.9 16.4
26/12:45pm 24.1 25.2 23.7 98 0.3 SE 24 37 13 20 1013.6 - 13.0
26/12:44pm 24.1 25.2 23.7 98 0.3 SE 24 37 13 20 1013.6 - 13.0
26/12:30pm 24.2 26.1 23.8 98 0.3 SE 20 33 11 18 1013.7 - 12.4
26/12:23pm 24.1 26.0 23.8 98 0.2 SE 20 28 11 15 1013.7 - 12.4
26/12:20pm 24.1 26.5 23.7 98 0.3 SSE 17 28 9 15 1013.8 - 12.4
26/12:15pm 24.2 25.8 23.9 98 0.2 ESE 22 33 12 18 1013.9 - 11.0
26/12:00pm 24.3 26.3 23.9 98 0.3 ESE 20 35 11 19 1013.9 - 8.6
26/11:57am 24.1 26.2 23.7 98 0.3 ESE 19 35 10 19 1013.9 - 8.4
26/11:55am 24.1 26.2 23.7 98 0.3 ESE 19 35 10 19 1014.0 - 8.4
26/11:52am 24.0 25.7 23.4 96 0.4 ESE 20 35 11 19 1014.1 - 8.4
26/11:30am 24.4 26.3 23.7 96 0.5 ESE 20 33 11 18 1014.1 - 2.0
26/11:17am 24.2 25.8 23.2 94 0.7 ESE 20 30 11 16 1014.3 - 0.8
26/11:00am 25.0 26.8 23.5 91 1.0 ESE 20 28 11 15 1014.4 - 0.0
26/10:30am 24.7 26.0 23.4 92 0.9 ESE 22 32 12 17 1014.6 - 0.0
26/10:00am 24.4 25.2 23.1 92 0.9 ESE 24 35 13 19 1014.5 1013.0 2.4
26/09:30am 24.4 25.8 23.5 95 0.6 ESE 22 33 12 18 1014.6 - 2.4
26/09:19am 24.2 25.2 23.5 96 0.5 ESE 24 33 13 18 1014.5 - 2.4
26/09:08am 24.3 25.7 23.6 96 0.5 ESE 22 33 12 18 1014.5 - 2.4
26/09:00am 24.4 25.9 23.7 96 0.5 ESE 22 32 12 17 1014.4 - 2.4
26/08:30am 24.3 25.2 23.3 94 0.7 SE 24 33 13 18 1014.0 - 2.4
26/08:00am 23.9 24.8 23.3 96 0.4 SE 24 33 13 18 1013.8 - 2.4
26/07:55am 24.0 24.9 23.4 96 0.4 SE 24 33 13 18 1013.8 - 2.4
26/07:34am 23.9 25.5 23.3 96 0.4 SE 20 30 11 16 1013.7 - 2.4
26/07:30am 23.9 25.5 23.2 96 0.5 SE 20 30 11 16 1013.6 - 2.4
26/07:23am 23.6 24.6 22.9 96 0.5 SE 22 37 12 20 1013.5 - 2.4
26/07:08am 23.9 25.7 23.3 96 0.4 SE 19 32 10 17 1013.2 - 2.4
26/07:00am 24.0 25.9 23.4 96 0.4 SE 19 26 10 14 1013.3 1011.8 2.4
26/06:59am 24.0 25.9 23.4 96 0.4 SE 19 26 10 14 1013.3 - 2.4
26/06:39am 23.1 23.1 22.4 96 0.5 ESE 26 39 14 21 1013.2 - 2.4
26/06:30am 24.3 26.3 23.6 96 0.5 ESE 19 24 10 13 1012.9 - 2.4
26/06:00am 23.9 25.6 23.0 95 0.6 ESE 19 28 10 15 1012.9 - 2.4
26/05:48am 24.2 25.8 23.2 94 0.7 ESE 20 32 11 17 1012.8 - 2.4
26/05:42am 24.3 25.9 22.8 91 1.0 ESE 19 28 10 15 1012.8 - 2.4
26/05:30am 24.1 25.7 22.9 93 0.8 ESE 19 28 10 15 1012.7 - 2.4
26/05:00am 24.0 26.0 23.0 94 0.7 E 17 26 9 14 1012.6 - 2.4
26/04:36am 24.2 25.6 22.9 92 0.9 SE 20 30 11 16 1012.8 - 2.2
26/04:30am 24.2 25.6 22.9 92 0.9 SE 20 33 11 18 1012.8 - 2.2
26/04:15am 24.3 25.8 23.0 92 0.9 SE 20 28 11 15 1012.7 - 1.6

Other Formats:

Comma delimited format used in spreadsheet applications
http://www.bom.gov.au/fwo/IDW60801/IDW60801.96995.axf

JavaScript Object Notation format (JSON) in row-major order
http://www.bom.gov.au/fwo/IDW60801/IDW60801.96995.json